Time;durP1;ratioP1;P1;durP2;ratioP2;P2;SDS_P1;SDS_P2;PMS_P1;PMS_P2;Temp;Humidity;BMP_temperature;BMP_pressure;BME280_temperature;BME280_humidity;BME280_pressure;Samples;Min_cycle;Max_cycle;Signal;HPM_P1;HPM_P2
2022/05/24 00:02:17;;;;;;;2.75;2.50;;;;;;;16.97;nan;-24290.00;5071837;28;20266;-67
2022/05/24 00:04:42;;;;;;;3.08;2.50;;;;;;;16.79;nan;-24284.97;5071888;28;20173;-65
2022/05/24 00:07:08;;;;;;;2.80;2.55;;;;;;;16.97;nan;-24290.00;5076755;28;20189;-65
2022/05/24 00:09:34;;;;;;;3.22;2.70;;;;;;;16.95;nan;-24289.44;5071491;28;20178;-64
2022/05/24 00:11:59;;;;;;;4.57;2.40;;;;;;;16.41;nan;-24274.50;5071685;28;20166;-66
2022/05/24 00:17:08;;;;;;;2.80;2.38;;;;;;;16.63;nan;-24280.50;5071566;28;20232;-69
2022/05/24 00:19:34;;;;;;;3.65;2.50;;;;;;;16.83;nan;-24286.09;5071691;28;20174;-65
2022/05/24 00:22:00;;;;;;;2.80;2.15;;;;;;;16.91;nan;-24288.34;5071597;28;20171;-67
2022/05/24 00:24:26;;;;;;;2.85;2.33;;;;;;;15.01;nan;-24235.88;5071528;28;20166;-64
2022/05/24 00:26:51;;;;;;;3.50;2.40;;;;;;;16.69;nan;-24282.31;5071768;28;20170;-63
2022/05/24 00:29:17;;;;;;;3.80;2.60;;;;;;;17.08;nan;-24293.09;5072072;28;20177;-65
2022/05/24 00:31:42;;;;;;;2.63;2.25;;;;;;;16.89;nan;-24287.78;5071722;28;20181;-64
2022/05/24 00:34:08;;;;;;;2.40;2.20;;;;;;;17.22;nan;-24297.00;5071542;28;20181;-65
2022/05/24 00:36:34;;;;;;;3.33;2.45;;;;;;;17.36;nan;-24300.75;5075495;28;20197;-67
2022/05/24 00:38:59;;;;;;;3.15;2.30;;;;;;;16.95;nan;-24289.31;5075360;28;20556;-67
2022/05/24 00:41:31;;;;;;;3.13;2.53;;;;;;;17.25;nan;-24297.69;5075520;28;20590;-65
2022/05/24 00:44:23;;;;;;;3.83;2.58;;;;;;;16.85;nan;-24286.66;5080248;28;20626;-65
2022/05/24 00:46:59;;;;;;;3.20;2.50;;;;;;;17.14;nan;-24294.75;5060980;28;20182;-71
2022/05/24 00:49:31;;;;;;;4.13;3.03;;;;;;;17.15;nan;-24294.91;5075296;28;20248;-68
2022/05/24 00:52:15;;;;;;;4.90;2.80;;;;;;;17.17;nan;-24295.44;5075456;28;20174;-64
2022/05/24 00:54:41;;;;;;;3.72;2.70;;;;;;;16.88;nan;-24287.34;5074905;28;20629;-64
2022/05/24 00:57:10;;;;;;;3.20;2.45;;;;;;;16.86;nan;-24286.78;5074815;28;20325;-64
2022/05/24 00:59:44;;;;;;;5.38;2.65;;;;;;;16.90;nan;-24287.91;5074802;28;20261;-67
2022/05/24 01:02:10;;;;;;;2.67;2.45;;;;;;;16.97;nan;-24289.88;5075261;28;20253;-67
2022/05/24 01:04:36;;;;;;;5.68;2.50;;;;;;;17.08;nan;-24293.09;5074996;28;20701;-67
2022/05/24 01:07:02;;;;;;;3.10;2.30;;;;;;;17.03;nan;-24291.53;5075105;28;20194;-66
2022/05/24 01:09:33;;;;;;;3.92;2.85;;;;;;;17.09;nan;-24293.34;5074728;28;20182;-67
2022/05/24 01:12:04;;;;;;;3.22;2.35;;;;;;;16.98;nan;-24290.28;5075012;28;20173;-66
2022/05/24 01:14:30;;;;;;;3.20;2.60;;;;;;;16.63;nan;-24280.66;5074818;28;20174;-67
2022/05/24 01:16:57;;;;;;;4.13;2.38;;;;;;;16.48;nan;-24276.44;5074797;28;20197;-63
2022/05/24 01:19:34;;;;;;;2.97;2.40;;;;;;;16.45;nan;-24275.63;5076971;28;20193;-64
2022/05/24 01:22:23;;;;;;;3.42;2.67;;;;;;;16.74;nan;-24283.72;5074575;28;20637;-63
2022/05/24 01:25:20;;;;;;;2.65;2.22;;;;;;;16.79;nan;-24284.97;5054476;28;20155;-65
2022/05/24 01:27:45;;;;;;;3.08;2.10;;;;;;;16.59;nan;-24279.41;5044412;28;20289;-66
2022/05/24 01:30:12;;;;;;;3.55;2.42;;;;;;;16.36;nan;-24273.09;5074582;28;20256;-66
2022/05/24 01:38:12;;;;;;;2.88;2.58;;;;;;;16.65;nan;-24281.22;5074718;28;20185;-68
2022/05/24 01:40:37;;;;;;;5.40;2.53;;;;;;;16.56;nan;-24278.69;5079581;28;20185;-66
2022/05/24 01:43:04;;;;;;;2.90;2.47;;;;;;;16.41;nan;-24274.34;5078157;28;20181;-67
2022/05/24 01:45:38;;;;;;;2.90;2.38;;;;;;;16.58;nan;-24279.13;5077821;28;20177;-68
2022/05/24 01:48:11;;;;;;;3.88;2.60;;;;;;;16.32;nan;-24272.13;5076689;28;20174;-67
2022/05/24 01:50:38;;;;;;;3.17;2.60;;;;;;;16.59;nan;-24279.53;5079079;28;20201;-67
2022/05/24 01:53:10;;;;;;;3.72;2.47;;;;;;;16.51;nan;-24277.28;5079234;28;20188;-67
2022/05/24 01:55:50;;;;;;;2.53;2.30;;;;;;;16.51;nan;-24277.28;5078994;28;20222;-64
2022/05/24 01:58:18;;;;;;;4.32;3.00;;;;;;;16.61;nan;-24280.09;5079617;28;20177;-66
2022/05/24 02:00:51;;;;;;;2.80;2.53;;;;;;;16.44;nan;-24275.34;5075632;28;20243;-66
2022/05/24 02:03:16;;;;;;;3.15;2.72;;;;;;;16.66;nan;-24281.50;5078395;28;20576;-63
2022/05/24 02:05:42;;;;;;;3.38;2.40;;;;;;;16.19;nan;-24268.34;5078252;28;20192;-64
2022/05/24 02:08:10;;;;;;;4.55;2.80;;;;;;;16.62;nan;-24280.22;5079721;28;20209;-67
2022/05/24 02:10:43;;;;;;;5.03;2.60;;;;;;;16.42;nan;-24274.63;5075892;28;20602;-67
2022/05/24 02:13:10;;;;;;;3.95;2.67;;;;;;;16.47;nan;-24276.16;5080042;28;20182;-68
2022/05/24 02:15:40;;;;;;;4.07;2.67;;;;;;;16.86;nan;-24286.78;5078682;28;20562;-67
2022/05/24 02:18:11;;;;;;;3.25;2.45;;;;;;;16.86;nan;-24286.78;5078879;28;20671;-64
2022/05/24 02:20:40;;;;;;;7.30;2.72;;;;;;;16.49;nan;-24276.59;5075757;28;20178;-66
2022/05/24 02:23:07;;;;;;;4.32;2.97;;;;;;;16.58;nan;-24279.13;5078683;28;20178;-69
2022/05/24 02:25:32;;;;;;;3.53;2.63;;;;;;;16.75;nan;-24284.00;5078262;28;20173;-65
2022/05/24 02:27:58;;;;;;;3.22;2.65;;;;;;;16.66;nan;-24281.34;5079097;28;20659;-67
2022/05/24 02:30:27;;;;;;;4.15;2.80;;;;;;;16.52;nan;-24277.56;5079581;28;20630;-66
2022/05/24 02:32:53;;;;;;;3.10;2.60;;;;;;;16.50;nan;-24277.00;5077361;28;20185;-69
2022/05/24 02:35:19;;;;;;;3.67;2.40;;;;;;;16.59;nan;-24279.41;5079938;28;20182;-65
2022/05/24 02:37:44;;;;;;;3.25;2.92;;;;;;;16.38;nan;-24273.66;5077022;28;20664;-67
2022/05/24 02:42:55;;;;;;;2.90;2.60;;;;;;;16.38;nan;-24273.66;5074193;28;20630;-64
2022/05/24 02:45:21;;;;;;;3.75;2.80;;;;;;;16.58;nan;-24279.25;5080938;28;20268;-63
2022/05/24 02:47:47;;;;;;;3.60;2.55;;;;;;;16.29;nan;-24271.28;5077094;28;20184;-66
2022/05/24 02:50:13;;;;;;;3.22;2.67;;;;;;;16.30;nan;-24271.41;5077832;28;20281;-69
2022/05/24 02:52:40;;;;;;;3.60;2.60;;;;;;;16.57;nan;-24278.97;5078643;28;20220;-69
2022/05/24 02:55:07;;;;;;;3.15;2.58;;;;;;;16.60;nan;-24279.66;5078857;28;20213;-67
2022/05/24 02:57:33;;;;;;;5.53;2.50;;;;;;;16.62;nan;-24280.38;5070644;28;20267;-66
2022/05/24 02:59:59;;;;;;;4.93;2.70;;;;;;;16.63;nan;-24280.66;5073910;28;20189;-66
2022/05/24 03:02:25;;;;;;;4.75;2.50;;;;;;;16.71;nan;-24282.88;5076845;28;20178;-66
2022/05/24 03:04:50;;;;;;;3.55;2.60;;;;;;;16.74;nan;-24283.59;5077982;28;20273;-64
2022/05/24 03:09:59;;;;;;;3.30;2.50;;;;;;;17.14;nan;-24294.63;5077930;28;20243;-65
2022/05/24 03:15:09;;;;;;;3.13;2.78;;;;;;;17.29;nan;-24298.81;5080498;28;20196;-66
2022/05/24 03:17:35;;;;;;;3.42;2.67;;;;;;;17.11;nan;-24293.78;5076790;28;20214;-66
2022/05/24 03:20:01;;;;;;;3.15;2.58;;;;;;;17.18;nan;-24295.88;5078134;28;20669;-65
2022/05/24 03:22:26;;;;;;;3.55;2.78;;;;;;;17.11;nan;-24293.78;5076685;28;20182;-67
2022/05/24 03:24:52;;;;;;;2.90;2.60;;;;;;;17.01;nan;-24291.13;5074558;28;20209;-64
2022/05/24 03:27:18;;;;;;;4.35;2.70;;;;;;;17.28;nan;-24298.53;5075398;28;20242;-67
2022/05/24 03:29:45;;;;;;;4.13;2.88;;;;;;;17.36;nan;-24300.75;5076355;28;20200;-65
2022/05/24 03:32:12;;;;;;;5.20;2.80;;;;;;;17.32;nan;-24299.63;5078762;28;20656;-66
2022/05/24 03:34:39;;;;;;;2.95;2.53;;;;;;;18.04;nan;-24319.59;5074279;28;20269;-65
2022/05/24 03:37:06;;;;;;;5.05;3.08;;;;;;;19.41;nan;-24357.34;5077342;28;20220;-68
2022/05/24 03:39:32;;;;;;;6.93;3.15;;;;;;;19.88;nan;-24370.13;5076643;28;20276;-64
2022/05/24 03:41:58;;;;;;;4.05;3.15;;;;;;;20.28;nan;-24381.09;5080497;28;20192;-66
2022/05/24 03:44:24;;;;;;;7.40;3.60;;;;;;;20.82;nan;-24395.81;5076497;28;20178;-64
2022/05/24 03:46:51;;;;;;;4.55;3.30;;;;;;;21.06;nan;-24402.59;5074805;28;20729;-67
2022/05/24 03:49:23;;;;;;;4.38;3.28;;;;;;;20.86;nan;-24397.06;5072378;28;20753;-64
2022/05/24 03:51:52;;;;;;;5.18;3.72;;;;;;;20.08;nan;-24375.69;5075398;28;20192;-67
2022/05/24 03:54:18;;;;;;;6.88;3.88;;;;;;;19.42;nan;-24357.47;5077003;28;20221;-63
2022/05/24 03:57:59;;;;;;;5.32;3.25;;;;;;;18.85;nan;-24341.88;5076079;28;20259;-66
2022/05/24 04:00:12;;;;;;;5.00;3.28;;;;;;;18.30;nan;-24326.69;5076536;28;20351;-65
2022/05/24 04:02:59;;;;;;;5.07;3.47;;;;;;;18.27;nan;-24325.72;5067979;28;20193;-68
2022/05/24 04:05:24;;;;;;;4.15;2.75;;;;;;;18.45;nan;-24330.75;5076540;28;20235;-65
2022/05/24 04:07:50;;;;;;;3.75;2.92;;;;;;;19.32;nan;-24354.81;5077311;28;20197;-66
2022/05/24 04:10:16;;;;;;;5.28;3.25;;;;;;;19.70;nan;-24365.13;5081010;28;20197;-65
2022/05/24 04:12:42;;;;;;;4.75;3.10;;;;;;;18.98;nan;-24345.50;5083018;28;20231;-64
2022/05/24 04:15:08;;;;;;;4.32;3.00;;;;;;;17.96;nan;-24317.34;5084946;28;20181;-63
2022/05/24 04:17:34;;;;;;;3.55;2.75;;;;;;;18.50;nan;-24332.28;5082411;28;20564;-63
2022/05/24 04:19:59;;;;;;;2.92;2.58;;;;;;;18.53;nan;-24332.97;5086341;28;20173;-61
2022/05/24 04:22:25;;;;;;;4.35;2.50;;;;;;;18.55;nan;-24333.53;5083125;28;20198;-63
2022/05/24 04:24:50;;;;;;;5.03;2.70;;;;;;;18.70;nan;-24337.72;5083603;28;20296;-63
2022/05/24 04:27:15;;;;;;;3.67;2.58;;;;;;;18.76;nan;-24339.25;5084721;28;20256;-63
2022/05/24 04:29:42;;;;;;;3.28;2.55;;;;;;;18.72;nan;-24338.13;5082746;28;20169;-63
2022/05/24 04:32:09;;;;;;;3.05;2.50;;;;;;;19.12;nan;-24349.25;5084374;28;20322;-65
2022/05/24 04:34:34;;;;;;;2.75;2.40;;;;;;;19.39;nan;-24356.63;5080107;28;20181;-64
2022/05/24 04:37:00;;;;;;;4.90;2.40;;;;;;;19.41;nan;-24357.34;5118583;27;20563;-65
2022/05/24 04:39:25;;;;;;;4.57;2.60;;;;;;;19.65;nan;-24363.72;5083413;28;20251;-63
2022/05/24 04:44:35;;;;;;;3.53;2.13;;;;;;;21.05;nan;-24402.34;5075805;28;20738;-69
2022/05/24 04:47:09;;;;;;;3.63;2.20;;;;;;;21.57;nan;-24416.47;5083261;28;20173;-70
2022/05/24 04:49:47;;;;;;;3.45;2.50;;;;;;;21.39;nan;-24411.50;5079052;28;20177;-68
2022/05/24 04:52:14;;;;;;;3.20;2.50;;;;;;;22.00;nan;-24428.25;5082061;28;20180;-67
2022/05/24 04:54:42;;;;;;;3.08;2.20;;;;;;;22.33;nan;-24437.38;5079915;28;20235;-69
2022/05/24 04:57:08;;;;;;;3.50;2.22;;;;;;;22.85;nan;-24451.63;5082827;28;20295;-67
2022/05/24 04:59:34;;;;;;;2.50;2.10;;;;;;;23.50;nan;-24469.31;5084444;28;20182;-65
2022/05/24 05:02:00;;;;;;;5.18;2.17;;;;;;;23.39;nan;-24466.13;5082863;28;20216;-69
2022/05/24 05:04:26;;;;;;;3.05;2.08;;;;;;;23.56;nan;-24470.97;5081704;28;20174;-68
2022/05/24 05:06:51;;;;;;;2.42;1.98;;;;;;;23.49;nan;-24469.03;5082410;28;20422;-70
2022/05/24 05:09:17;;;;;;;3.05;2.13;;;;;;;22.58;nan;-24444.16;5084159;28;20169;-67
2022/05/24 05:11:43;;;;;;;2.15;1.95;;;;;;;21.40;nan;-24411.75;5081948;28;20178;-66
2022/05/24 05:14:10;;;;;;;2.70;2.30;;;;;;;20.85;nan;-24396.66;5084742;28;20253;-66
2022/05/24 05:16:36;;;;;;;2.42;2.13;;;;;;;20.52;nan;-24387.75;5079994;28;20198;-68
2022/05/24 05:19:06;;;;;;;4.22;2.38;;;;;;;21.07;nan;-24402.75;5083076;28;20191;-66
2022/05/24 05:21:33;;;;;;;3.65;2.20;;;;;;;20.96;nan;-24399.84;5080409;28;20257;-66
2022/05/24 05:24:01;;;;;;;3.25;2.30;;;;;;;20.05;nan;-24374.84;5081529;28;20185;-65
2022/05/24 05:26:27;;;;;;;3.38;2.40;;;;;;;19.83;nan;-24368.72;5077189;28;20294;-65
2022/05/24 05:28:53;;;;;;;3.85;2.63;;;;;;;19.91;nan;-24370.97;5079257;28;20227;-65
2022/05/24 05:31:26;;;;;;;3.92;2.67;;;;;;;19.80;nan;-24367.91;5078111;28;20208;-68
2022/05/24 05:33:56;;;;;;;3.53;2.65;;;;;;;19.85;nan;-24369.28;5077819;28;20260;-69
2022/05/24 05:36:23;;;;;;;5.57;2.78;;;;;;;19.88;nan;-24369.97;5082286;28;20297;-65
2022/05/24 05:38:49;;;;;;;5.10;2.67;;;;;;;20.37;nan;-24383.59;5078274;28;20620;-67
2022/05/24 05:41:17;;;;;;;2.97;2.45;;;;;;;20.70;nan;-24392.75;5079733;28;20254;-65
2022/05/24 05:43:43;;;;;;;3.95;2.42;;;;;;;20.18;nan;-24378.47;5078666;28;20174;-65
2022/05/24 05:46:10;;;;;;;3.47;2.60;;;;;;;20.62;nan;-24390.41;5079947;28;20189;-67
2022/05/24 05:48:36;;;;;;;3.47;2.85;;;;;;;21.03;nan;-24401.63;5078089;28;20178;-65
2022/05/24 05:51:03;;;;;;;4.07;2.67;;;;;;;21.07;nan;-24402.88;5097889;28;20181;-67
2022/05/24 05:53:29;;;;;;;4.35;2.38;;;;;;;20.27;nan;-24380.97;5078268;28;20174;-69
2022/05/24 05:55:55;;;;;;;3.17;2.47;;;;;;;20.53;nan;-24387.91;5078549;28;20316;-63
2022/05/24 05:58:20;;;;;;;5.82;2.70;;;;;;;20.56;nan;-24388.88;5079518;28;20222;-64
2022/05/24 06:00:48;;;;;;;3.30;2.53;;;;;;;20.62;nan;-24390.41;5079699;28;20675;-63
2022/05/24 06:03:14;;;;;;;3.17;2.60;;;;;;;20.44;nan;-24385.53;5080021;28;20188;-66
2022/05/24 06:05:40;;;;;;;2.75;2.40;;;;;;;20.63;nan;-24390.81;5077413;28;20262;-67
2022/05/24 06:08:08;;;;;;;3.97;2.40;;;;;;;20.70;nan;-24392.75;5080221;28;20186;-68
2022/05/24 06:10:35;;;;;;;4.75;2.80;;;;;;;20.87;nan;-24397.19;5074224;28;20273;-64
2022/05/24 06:13:00;;;;;;;5.28;2.50;;;;;;;21.33;nan;-24409.97;5078382;28;20178;-68
2022/05/24 06:15:27;;;;;;;3.58;2.58;;;;;;;21.27;nan;-24408.16;5078794;28;20181;-67
2022/05/24 06:17:53;;;;;;;3.92;2.50;;;;;;;21.31;nan;-24409.28;5077657;28;20204;-68
2022/05/24 06:20:22;;;;;;;3.67;2.15;;;;;;;21.48;nan;-24413.97;5081114;28;20188;-68
2022/05/24 06:22:49;;;;;;;2.47;2.20;;;;;;;21.46;nan;-24413.44;5077404;28;20189;-65
2022/05/24 06:25:16;;;;;;;2.90;2.40;;;;;;;20.79;nan;-24394.97;5081477;28;20170;-63
2022/05/24 06:27:41;;;;;;;4.68;2.92;;;;;;;21.06;nan;-24402.59;5075242;28;20206;-69
2022/05/24 06:30:08;;;;;;;3.55;2.55;;;;;;;21.19;nan;-24405.94;5072808;28;20213;-70
2022/05/24 06:32:33;;;;;;;6.22;2.75;;;;;;;21.30;nan;-24409.00;5072506;28;20646;-68
2022/05/24 06:34:59;;;;;;;3.75;2.67;;;;;;;22.20;nan;-24433.66;5072803;28;20273;-69
2022/05/24 06:37:24;;;;;;;2.88;2.30;;;;;;;22.20;nan;-24433.66;5072733;28;20648;-67
2022/05/24 06:39:50;;;;;;;2.70;2.20;;;;;;;22.20;nan;-24433.78;5072606;28;20170;-65
2022/05/24 06:42:15;;;;;;;3.20;2.45;;;;;;;21.73;nan;-24420.91;5072457;28;20181;-67
2022/05/24 06:44:41;;;;;;;2.72;2.42;;;;;;;22.26;nan;-24435.44;5077929;28;20174;-67
2022/05/24 06:47:07;;;;;;;3.67;2.63;;;;;;;21.60;nan;-24417.44;5072318;28;20208;-67
2022/05/24 06:49:33;;;;;;;4.63;2.58;;;;;;;21.80;nan;-24422.84;5072626;28;20614;-66
2022/05/24 06:51:59;;;;;;;3.47;2.70;;;;;;;21.69;nan;-24419.78;5072371;28;20177;-66
2022/05/24 06:54:25;;;;;;;3.53;2.75;;;;;;;22.10;nan;-24430.88;5072104;28;20697;-69
2022/05/24 06:56:52;;;;;;;3.42;2.60;;;;;;;22.31;nan;-24436.84;5073916;28;20660;-65
2022/05/24 07:04:45;;;;;;;3.35;2.58;;;;;;;22.11;nan;-24431.28;5075799;28;20180;-64
2022/05/24 07:07:11;;;;;;;4.05;2.55;;;;;;;21.96;nan;-24427.28;5073159;28;20185;-67
2022/05/24 07:09:37;;;;;;;3.88;2.40;;;;;;;22.39;nan;-24439.03;5072590;28;20186;-64
2022/05/24 07:12:09;;;;;;;4.05;2.53;;;;;;;22.48;nan;-24441.41;5071760;28;20539;-63
2022/05/24 07:14:42;;;;;;;3.97;2.85;;;;;;;22.48;nan;-24441.41;5071507;28;20178;-61
2022/05/24 07:17:07;;;;;;;3.30;2.60;;;;;;;22.51;nan;-24442.22;5071365;28;20205;-64
2022/05/24 07:19:33;;;;;;;3.53;2.83;;;;;;;22.30;nan;-24436.56;5070701;28;20166;-63
2022/05/24 07:21:58;;;;;;;3.92;2.80;;;;;;;22.80;nan;-24450.09;5073977;28;20187;-65
2022/05/24 07:24:23;;;;;;;3.17;2.42;;;;;;;22.72;nan;-24447.91;5071972;28;20253;-63
2022/05/24 07:26:49;;;;;;;3.35;2.67;;;;;;;23.10;nan;-24458.25;5076757;28;20209;-65
2022/05/24 07:29:14;;;;;;;3.40;2.42;;;;;;;23.27;nan;-24463.09;5071149;28;20247;-67
2022/05/24 07:31:40;;;;;;;3.70;2.80;;;;;;;23.07;nan;-24457.44;5071973;28;20197;-64
2022/05/24 07:34:06;;;;;;;3.40;2.75;;;;;;;22.75;nan;-24448.88;5075752;28;20181;-64
2022/05/24 07:36:31;;;;;;;3.15;2.60;;;;;;;22.83;nan;-24450.94;5071571;28;20225;-65
2022/05/24 07:38:58;;;;;;;3.15;2.45;;;;;;;21.76;nan;-24421.75;5072945;28;20186;-68
2022/05/24 07:46:53;;;;;;;3.88;2.58;;;;;;;22.40;nan;-24439.19;5071581;28;20636;-65
2022/05/24 07:49:18;;;;;;;3.95;3.08;;;;;;;22.56;nan;-24443.59;5071712;28;20185;-64
2022/05/24 07:51:44;;;;;;;4.00;2.72;;;;;;;22.55;nan;-24443.34;5071618;28;20609;-68
2022/05/24 07:54:09;;;;;;;6.85;2.45;;;;;;;22.43;nan;-24440.16;5071153;28;20182;-63
2022/05/24 07:56:34;;;;;;;3.08;2.65;;;;;;;22.31;nan;-24436.84;5071364;28;20244;-66
2022/05/24 07:59:00;;;;;;;3.63;3.00;;;;;;;22.53;nan;-24442.63;5071621;28;20158;-64
2022/05/24 08:01:25;;;;;;;4.00;3.00;;;;;;;23.16;nan;-24460.06;5071321;28;20182;-67
2022/05/24 08:03:51;;;;;;;4.53;3.28;;;;;;;23.10;nan;-24458.41;5076180;28;20258;-67
2022/05/24 08:06:17;;;;;;;3.33;2.65;;;;;;;23.66;nan;-24473.75;5076761;28;20177;-68
2022/05/24 08:08:43;;;;;;;2.58;2.38;;;;;;;23.67;nan;-24474.00;5071634;28;20181;-65
2022/05/24 08:11:09;;;;;;;4.00;2.85;;;;;;;23.61;nan;-24472.22;5069844;28;20700;-69
2022/05/24 08:13:35;;;;;;;4.47;2.60;;;;;;;23.84;nan;-24478.44;5071429;28;20166;-66
2022/05/24 08:16:01;;;;;;;3.70;2.83;;;;;;;23.92;nan;-24480.78;5076072;28;20206;-67
2022/05/24 08:18:26;;;;;;;6.68;2.63;;;;;;;23.78;nan;-24477.03;5071425;28;20286;-64
2022/05/24 08:20:53;;;;;;;5.55;2.75;;;;;;;23.66;nan;-24473.59;5071344;28;20169;-66
2022/05/24 08:23:21;;;;;;;4.28;2.75;;;;;;;24.13;nan;-24486.44;5069948;28;20210;-68
2022/05/24 08:25:46;;;;;;;3.70;3.05;;;;;;;24.19;nan;-24488.09;5076284;28;20188;-66
2022/05/24 08:28:12;;;;;;;4.68;3.00;;;;;;;23.82;nan;-24478.00;5071396;28;20174;-65
2022/05/24 08:30:39;;;;;;;3.17;2.60;;;;;;;23.96;nan;-24481.88;5071398;28;20177;-68
2022/05/24 08:33:04;;;;;;;4.80;3.20;;;;;;;23.83;nan;-24478.16;5069912;28;20567;-67
2022/05/24 08:35:33;;;;;;;3.58;2.72;;;;;;;23.09;nan;-24458.00;5071325;28;20170;-66
2022/05/24 08:37:59;;;;;;;4.57;3.00;;;;;;;23.66;nan;-24473.75;5070835;28;20281;-67
2022/05/24 08:40:24;;;;;;;3.47;2.50;;;;;;;23.41;nan;-24466.69;5074222;28;20178;-66
2022/05/24 08:42:56;;;;;;;3.50;2.72;;;;;;;23.30;nan;-24463.94;5064683;28;20181;-65
2022/05/24 08:48:28;;;;;;;4.15;2.88;;;;;;;23.12;nan;-24458.81;5073447;28;20188;-67
2022/05/24 08:51:02;;;;;;;4.18;3.08;;;;;;;23.17;nan;-24460.19;5071166;28;20253;-64
2022/05/24 08:53:36;;;;;;;4.60;2.97;;;;;;;23.30;nan;-24463.78;5074856;28;20272;-63
2022/05/24 08:56:06;;;;;;;5.88;2.80;;;;;;;23.64;nan;-24473.03;5071130;28;20262;-68
2022/05/24 08:58:39;;;;;;;4.38;2.70;;;;;;;23.63;nan;-24472.91;5078275;28;20193;-64
2022/05/24 09:01:22;;;;;;;3.53;2.60;;;;;;;23.15;nan;-24459.78;5074277;28;20182;-67
2022/05/24 09:03:47;;;;;;;2.88;2.40;;;;;;;22.62;nan;-24445.25;5074404;28;20261;-66
2022/05/24 09:06:22;;;;;;;3.38;2.78;;;;;;;22.99;nan;-24455.22;5074059;28;20205;-63
2022/05/24 09:08:58;;;;;;;3.10;2.70;;;;;;;23.28;nan;-24463.25;5074624;28;20162;-65
2022/05/24 09:11:59;;;;;;;3.03;2.72;;;;;;;23.41;nan;-24466.81;5077705;28;20185;-68
2022/05/24 09:18:10;;;;;;;2.95;2.58;;;;;;;25.21;nan;-24515.78;5050949;28;20306;-64
2022/05/24 09:20:41;;;;;;;3.25;2.58;;;;;;;25.58;nan;-24525.81;5051594;28;20244;-64
2022/05/24 09:23:24;;;;;;;5.60;2.75;;;;;;;25.52;nan;-24524.44;5050003;28;20623;-66
2022/05/24 09:25:53;;;;;;;3.72;2.67;;;;;;;25.19;nan;-24515.22;5048538;28;20255;-67
2022/05/24 09:28:19;;;;;;;3.95;3.05;;;;;;;25.14;nan;-24513.84;5049109;28;20181;-64
2022/05/24 09:30:45;;;;;;;4.60;2.65;;;;;;;25.05;nan;-24511.50;5049591;28;20186;-65
2022/05/24 09:33:29;;;;;;;3.33;2.80;;;;;;;24.41;nan;-24494.16;5049703;28;20190;-63
2022/05/24 09:35:59;;;;;;;2.90;2.22;;;;;;;23.47;nan;-24468.50;5048993;28;20182;-66
2022/05/24 09:38:33;;;;;;;4.45;3.00;;;;;;;23.55;nan;-24470.69;5049333;28;20305;-63
2022/05/24 09:41:14;;;;;;;3.88;2.75;;;;;;;24.14;nan;-24486.69;5050103;28;20182;-65
2022/05/24 09:43:40;;;;;;;4.45;2.90;;;;;;;24.08;nan;-24485.19;5048038;28;20256;-67
2022/05/24 09:46:22;;;;;;;3.58;2.70;;;;;;;24.49;nan;-24496.34;5049153;28;20794;-65
2022/05/24 09:49:18;;;;;;;4.95;2.90;;;;;;;24.36;nan;-24492.78;5068121;28;20329;-67
2022/05/24 09:51:45;;;;;;;7.32;3.00;;;;;;;24.54;nan;-24497.59;5077663;28;20182;-66
2022/05/24 09:54:20;;;;;;;3.35;2.47;;;;;;;24.78;nan;-24504.22;5080397;28;20668;-65
2022/05/24 09:57:10;;;;;;;3.20;2.85;;;;;;;25.12;nan;-24513.44;5080241;28;20201;-64
2022/05/24 09:59:40;;;;;;;4.00;2.53;;;;;;;25.04;nan;-24511.38;5068677;28;20220;-66
2022/05/24 10:02:42;;;;;;;3.40;2.72;;;;;;;25.12;nan;-24513.31;5077304;28;20189;-64
2022/05/24 10:05:27;;;;;;;3.25;2.60;;;;;;;25.28;nan;-24517.72;4999418;28;20183;-67
2022/05/24 10:07:58;;;;;;;3.50;2.70;;;;;;;25.89;nan;-24534.34;5069489;28;20277;-68
2022/05/24 10:10:45;;;;;;;4.70;3.20;;;;;;;25.33;nan;-24519.09;5081112;28;20213;-63
2022/05/24 10:13:13;;;;;;;5.75;2.90;;;;;;;24.85;nan;-24506.13;5080227;28;20546;-65
2022/05/24 10:16:00;;;;;;;3.47;2.97;;;;;;;24.51;nan;-24496.91;5078018;28;20174;-66
2022/05/24 10:18:54;;;;;;;2.88;2.58;;;;;;;25.18;nan;-24515.09;5079954;28;20225;-65
2022/05/24 10:21:32;;;;;;;3.92;2.80;;;;;;;25.49;nan;-24523.47;5077420;28;20189;-67
2022/05/24 10:24:34;;;;;;;2.88;2.50;;;;;;;25.76;nan;-24530.78;5082318;28;20180;-67
2022/05/24 10:27:13;;;;;;;4.35;2.60;;;;;;;25.79;nan;-24531.59;5079353;28;20185;-66
2022/05/24 10:29:49;;;;;;;3.65;2.65;;;;;;;26.23;nan;-24543.69;5075313;28;20184;-66
2022/05/24 10:38:56;;;;;;;3.97;2.78;;;;;;;26.25;nan;-24544.13;5067856;28;20193;-62
2022/05/24 10:41:33;;;;;;;5.35;2.58;;;;;;;26.19;nan;-24542.59;5113892;27;20181;-63
2022/05/24 10:44:23;;;;;;;3.63;2.63;;;;;;;25.52;nan;-24524.44;5079251;28;20208;-65
2022/05/24 10:46:59;;;;;;;3.67;2.80;;;;;;;26.07;nan;-24539.31;5073554;28;20181;-66
2022/05/24 10:49:48;;;;;;;4.53;3.03;;;;;;;26.07;nan;-24539.16;5076537;28;20284;-65
2022/05/24 10:52:33;;;;;;;3.63;2.88;;;;;;;25.72;nan;-24529.81;5079123;28;20259;-67
2022/05/24 10:55:24;;;;;;;3.33;2.67;;;;;;;25.34;nan;-24519.34;5081268;28;20217;-67
2022/05/24 10:57:56;;;;;;;3.53;2.90;;;;;;;25.41;nan;-24521.28;5075977;28;20209;-66
2022/05/24 11:00:29;;;;;;;6.93;2.88;;;;;;;25.49;nan;-24523.47;5078318;28;20204;-66
2022/05/24 11:03:12;;;;;;;3.67;3.00;;;;;;;25.88;nan;-24534.06;5077914;28;20185;-65
2022/05/24 11:05:52;;;;;;;4.93;2.40;;;;;;;26.24;nan;-24543.84;5073712;28;20231;-64
2022/05/24 11:08:46;;;;;;;5.80;3.25;;;;;;;26.61;nan;-24553.84;5079108;28;20195;-65
2022/05/24 11:11:22;;;;;;;4.75;3.10;;;;;;;26.60;nan;-24553.59;5076279;28;20212;-67
2022/05/24 11:14:36;;;;;;;2.92;2.50;;;;;;;27.08;nan;-24566.75;5076701;28;20185;-69
2022/05/24 11:17:02;;;;;;;3.10;2.65;;;;;;;26.95;nan;-24563.19;5067862;28;20314;-68
2022/05/24 11:19:31;;;;;;;3.85;2.88;;;;;;;27.78;nan;-24585.53;5078014;28;20174;-63
2022/05/24 11:22:15;;;;;;;4.97;2.70;;;;;;;27.58;nan;-24580.34;5076678;28;20672;-68
2022/05/24 11:25:11;;;;;;;3.20;2.70;;;;;;;28.03;nan;-24592.53;5076568;28;20182;-67
2022/05/24 11:27:44;;;;;;;3.17;2.72;;;;;;;28.02;nan;-24592.13;5073014;28;20177;-66
2022/05/24 11:30:31;;;;;;;3.58;2.67;;;;;;;27.95;nan;-24590.34;5080973;28;20178;-65
2022/05/24 11:33:02;;;;;;;3.95;3.20;;;;;;;27.70;nan;-24583.47;5076989;28;20181;-67
2022/05/24 11:35:35;;;;;;;4.32;2.92;;;;;;;27.85;nan;-24587.44;5076595;28;20178;-64
2022/05/24 11:38:20;;;;;;;4.25;2.63;;;;;;;27.53;nan;-24578.97;5080467;28;20618;-64
2022/05/24 11:40:54;;;;;;;6.20;3.05;;;;;;;27.37;nan;-24574.44;5074496;28;20199;-66
2022/05/24 11:43:35;;;;;;;4.78;2.95;;;;;;;27.13;nan;-24568.13;5078135;28;20329;-67
2022/05/24 11:46:09;;;;;;;3.50;2.80;;;;;;;26.77;nan;-24558.25;5076910;28;20165;-65
2022/05/24 11:48:50;;;;;;;3.67;2.72;;;;;;;26.65;nan;-24555.09;5076037;28;20641;-65
2022/05/24 11:51:30;;;;;;;5.22;3.15;;;;;;;26.40;nan;-24548.22;5070038;28;20253;-64
2022/05/24 11:53:55;;;;;;;3.55;2.60;;;;;;;26.15;nan;-24541.50;5075851;28;20243;-65
2022/05/24 11:56:24;;;;;;;4.95;3.17;;;;;;;26.83;nan;-24560.03;5076067;28;20237;-65
2022/05/24 11:58:53;;;;;;;3.85;3.00;;;;;;;26.94;nan;-24562.91;5075873;28;20672;-65
2022/05/24 12:01:19;;;;;;;3.78;2.90;;;;;;;26.66;nan;-24555.38;5075748;28;20181;-66
2022/05/24 12:09:59;;;;;;;3.90;3.22;;;;;;;25.19;nan;-24515.38;5074072;28;20257;-65
2022/05/24 12:12:34;;;;;;;3.80;3.00;;;;;;;24.62;nan;-24499.94;5078703;28;20252;-63
2022/05/24 12:15:47;;;;;;;3.47;3.08;;;;;;;24.61;nan;-24499.66;5073484;28;20209;-65
2022/05/24 12:18:24;;;;;;;3.42;2.80;;;;;;;25.02;nan;-24510.69;5054441;28;20301;-66
2022/05/24 12:20:49;;;;;;;3.92;3.47;;;;;;;25.18;nan;-24514.94;5075730;28;20181;-68
2022/05/24 12:23:38;;;;;;;3.72;2.85;;;;;;;25.12;nan;-24513.31;5077827;28;20169;-65
2022/05/24 12:26:07;;;;;;;3.60;3.00;;;;;;;25.60;nan;-24526.50;5076170;28;20549;-67
2022/05/24 12:28:35;;;;;;;3.40;3.05;;;;;;;25.68;nan;-24528.56;5076962;28;20181;-67
2022/05/24 12:31:13;;;;;;;4.07;3.20;;;;;;;25.87;nan;-24533.94;5076012;28;20174;-67
2022/05/24 12:34:03;;;;;;;4.25;3.33;;;;;;;25.76;nan;-24530.91;5074770;28;20177;-67
2022/05/24 12:36:34;;;;;;;5.90;3.60;;;;;;;25.46;nan;-24522.78;5079082;28;20205;-68
2022/05/24 12:39:14;;;;;;;4.50;3.30;;;;;;;25.74;nan;-24530.38;5078478;28;20186;-64
2022/05/24 12:41:42;;;;;;;6.63;3.20;;;;;;;26.22;nan;-24543.41;5076089;28;20649;-66
2022/05/24 12:44:30;;;;;;;6.22;3.33;;;;;;;26.51;nan;-24551.25;5079985;28;20243;-65
2022/05/24 12:46:59;;;;;;;4.55;3.13;;;;;;;26.19;nan;-24542.47;5082097;28;20185;-65
2022/05/24 12:49:31;;;;;;;3.55;2.78;;;;;;;25.56;nan;-24525.41;5081151;28;20262;-65